sensor_id;sensor_type;location;lat;lon;timestamp;temperature;humidity
38084;DHT22;23894;51.466;7.444;2022-09-03T00:02:41;18.70;99.90
38084;DHT22;23894;51.466;7.444;2022-09-03T00:07:14;18.60;99.90
38084;DHT22;23894;51.466;7.444;2022-09-03T00:09:39;18.60;99.90
38084;DHT22;23894;51.466;7.444;2022-09-03T00:14:38;18.60;99.90
38084;DHT22;23894;51.466;7.444;2022-09-03T00:16:48;18.60;99.90
38084;DHT22;23894;51.466;7.444;2022-09-03T00:19:08;18.50;99.90
38084;DHT22;23894;51.466;7.444;2022-09-03T00:21:19;18.50;99.90
38084;DHT22;23894;51.466;7.444;2022-09-03T00:23:27;18.50;99.90
38084;DHT22;23894;51.466;7.444;2022-09-03T00:25:53;18.50;99.90
38084;DHT22;23894;51.466;7.444;2022-09-03T00:27:57;18.50;99.90
38084;DHT22;23894;51.466;7.444;2022-09-03T00:30:04;18.50;99.90
38084;DHT22;23894;51.466;7.444;2022-09-03T00:34:56;18.60;99.90
38084;DHT22;23894;51.466;7.444;2022-09-03T00:37:02;18.60;99.90
38084;DHT22;23894;51.466;7.444;2022-09-03T00:39:03;18.60;99.90
38084;DHT22;23894;51.466;7.444;2022-09-03T00:41:31;18.60;99.90
38084;DHT22;23894;51.466;7.444;2022-09-03T00:46:46;18.60;99.90
38084;DHT22;23894;51.466;7.444;2022-09-03T00:49:18;18.60;99.90
38084;DHT22;23894;51.466;7.444;2022-09-03T00:51:50;18.60;99.90
38084;DHT22;23894;51.466;7.444;2022-09-03T00:56:53;18.60;99.90
38084;DHT22;23894;51.466;7.444;2022-09-03T01:01:49;18.70;99.90
38084;DHT22;23894;51.466;7.444;2022-09-03T01:04:27;18.70;99.90
38084;DHT22;23894;51.466;7.444;2022-09-03T01:09:37;18.60;99.90
38084;DHT22;23894;51.466;7.444;2022-09-03T01:12:10;18.60;99.90
38084;DHT22;23894;51.466;7.444;2022-09-03T01:24:48;18.70;99.90
38084;DHT22;23894;51.466;7.444;2022-09-03T01:32:18;18.90;99.90
38084;DHT22;23894;51.466;7.444;2022-09-03T01:36:59;18.90;99.90
38084;DHT22;23894;51.466;7.444;2022-09-03T01:42:06;19.00;99.90
38084;DHT22;23894;51.466;7.444;2022-09-03T01:47:35;19.00;99.90
38084;DHT22;23894;51.466;7.444;2022-09-03T01:49:50;19.10;99.90
38084;DHT22;23894;51.466;7.444;2022-09-03T01:52:45;19.10;99.90
38084;DHT22;23894;51.466;7.444;2022-09-03T01:55:11;19.10;99.90
38084;DHT22;23894;51.466;7.444;2022-09-03T01:57:44;19.20;99.90
38084;DHT22;23894;51.466;7.444;2022-09-03T02:02:07;19.20;99.90
38084;DHT22;23894;51.466;7.444;2022-09-03T02:04:20;19.20;99.90
38084;DHT22;23894;51.466;7.444;2022-09-03T02:06:27;19.20;99.90
38084;DHT22;23894;51.466;7.444;2022-09-03T02:08:32;19.20;99.90
38084;DHT22;23894;51.466;7.444;2022-09-03T02:11:03;19.20;99.90
38084;DHT22;23894;51.466;7.444;2022-09-03T02:13:20;19.30;99.90
38084;DHT22;23894;51.466;7.444;2022-09-03T02:15:24;19.30;99.90
38084;DHT22;23894;51.466;7.444;2022-09-03T02:17:29;19.30;99.90
38084;DHT22;23894;51.466;7.444;2022-09-03T02:19:32;19.30;99.90
38084;DHT22;23894;51.466;7.444;2022-09-03T02:21:38;19.30;99.90
38084;DHT22;23894;51.466;7.444;2022-09-03T02:23:40;19.30;99.90
38084;DHT22;23894;51.466;7.444;2022-09-03T02:25:55;19.20;99.90
38084;DHT22;23894;51.466;7.444;2022-09-03T02:27:58;19.20;99.90
38084;DHT22;23894;51.466;7.444;2022-09-03T02:30:01;19.20;99.90
38084;DHT22;23894;51.466;7.444;2022-09-03T02:32:03;19.10;99.90
38084;DHT22;23894;51.466;7.444;2022-09-03T02:34:05;19.10;99.90
38084;DHT22;23894;51.466;7.444;2022-09-03T02:36:10;19.10;99.90
38084;DHT22;23894;51.466;7.444;2022-09-03T02:38:21;19.10;99.90
38084;DHT22;23894;51.466;7.444;2022-09-03T02:40:23;19.00;99.90
38084;DHT22;23894;51.466;7.444;2022-09-03T02:42:24;19.00;99.90
38084;DHT22;23894;51.466;7.444;2022-09-03T02:44:30;18.90;99.90
38084;DHT22;23894;51.466;7.444;2022-09-03T02:46:47;18.80;99.90
38084;DHT22;23894;51.466;7.444;2022-09-03T02:48:50;18.80;99.90
38084;DHT22;23894;51.466;7.444;2022-09-03T02:50:52;18.70;99.90
38084;DHT22;23894;51.466;7.444;2022-09-03T02:52:54;18.60;99.90
38084;DHT22;23894;51.466;7.444;2022-09-03T02:54:56;18.60;99.90
38084;DHT22;23894;51.466;7.444;2022-09-03T02:56:58;18.50;99.90
38084;DHT22;23894;51.466;7.444;2022-09-03T02:59:03;18.50;99.90
38084;DHT22;23894;51.466;7.444;2022-09-03T03:01:05;18.40;99.90
38084;DHT22;23894;51.466;7.444;2022-09-03T03:03:06;18.30;99.90
38084;DHT22;23894;51.466;7.444;2022-09-03T03:05:09;18.30;99.90
38084;DHT22;23894;51.466;7.444;2022-09-03T03:07:14;18.20;99.90
38084;DHT22;23894;51.466;7.444;2022-09-03T03:09:17;18.10;99.90
38084;DHT22;23894;51.466;7.444;2022-09-03T03:11:19;18.10;99.90
38084;DHT22;23894;51.466;7.444;2022-09-03T03:13:22;18.00;99.90
38084;DHT22;23894;51.466;7.444;2022-09-03T03:15:23;18.00;99.90
38084;DHT22;23894;51.466;7.444;2022-09-03T03:17:26;17.90;99.90
38084;DHT22;23894;51.466;7.444;2022-09-03T03:19:27;17.90;99.90
38084;DHT22;23894;51.466;7.444;2022-09-03T03:21:29;17.80;99.90
38084;DHT22;23894;51.466;7.444;2022-09-03T03:23:32;17.70;99.90
38084;DHT22;23894;51.466;7.444;2022-09-03T03:25:36;17.60;99.90
38084;DHT22;23894;51.466;7.444;2022-09-03T03:27:38;17.60;99.90
38084;DHT22;23894;51.466;7.444;2022-09-03T03:29:42;17.50;99.90
38084;DHT22;23894;51.466;7.444;2022-09-03T03:31:44;17.50;99.90
38084;DHT22;23894;51.466;7.444;2022-09-03T03:33:57;17.40;99.90
38084;DHT22;23894;51.466;7.444;2022-09-03T03:36:02;17.40;99.90
38084;DHT22;23894;51.466;7.444;2022-09-03T03:38:04;17.30;99.90
38084;DHT22;23894;51.466;7.444;2022-09-03T03:40:05;17.30;99.90
38084;DHT22;23894;51.466;7.444;2022-09-03T03:42:08;17.20;99.90
38084;DHT22;23894;51.466;7.444;2022-09-03T03:44:10;17.20;99.90
38084;DHT22;23894;51.466;7.444;2022-09-03T03:46:12;17.10;99.90
38084;DHT22;23894;51.466;7.444;2022-09-03T03:48:15;17.10;99.90
38084;DHT22;23894;51.466;7.444;2022-09-03T03:50:17;17.00;99.90
38084;DHT22;23894;51.466;7.444;2022-09-03T03:52:19;17.00;99.90
38084;DHT22;23894;51.466;7.444;2022-09-03T03:54:21;16.90;99.90
38084;DHT22;23894;51.466;7.444;2022-09-03T03:56:24;16.90;99.90
38084;DHT22;23894;51.466;7.444;2022-09-03T03:58:28;16.80;99.90
38084;DHT22;23894;51.466;7.444;2022-09-03T04:00:29;16.80;99.90
38084;DHT22;23894;51.466;7.444;2022-09-03T04:02:30;16.80;99.90
38084;DHT22;23894;51.466;7.444;2022-09-03T04:04:32;16.80;99.90
38084;DHT22;23894;51.466;7.444;2022-09-03T04:06:34;16.70;99.90
38084;DHT22;23894;51.466;7.444;2022-09-03T04:08:38;16.70;99.90
38084;DHT22;23894;51.466;7.444;2022-09-03T04:10:40;16.70;99.90
38084;DHT22;23894;51.466;7.444;2022-09-03T04:12:43;16.70;99.90
38084;DHT22;23894;51.466;7.444;2022-09-03T04:14:45;16.60;99.90
38084;DHT22;23894;51.466;7.444;2022-09-03T04:16:47;16.60;99.90
38084;DHT22;23894;51.466;7.444;2022-09-03T04:18:49;16.50;99.90
38084;DHT22;23894;51.466;7.444;2022-09-03T04:20:50;16.50;99.90
38084;DHT22;23894;51.466;7.444;2022-09-03T04:22:52;16.50;99.90
38084;DHT22;23894;51.466;7.444;2022-09-03T04:24:54;16.40;99.90
38084;DHT22;23894;51.466;7.444;2022-09-03T04:26:56;16.40;99.90
38084;DHT22;23894;51.466;7.444;2022-09-03T04:28:59;16.40;99.90
38084;DHT22;23894;51.466;7.444;2022-09-03T04:31:03;16.40;99.90
38084;DHT22;23894;51.466;7.444;2022-09-03T04:33:05;16.30;99.90
38084;DHT22;23894;51.466;7.444;2022-09-03T04:35:06;16.30;99.90
38084;DHT22;23894;51.466;7.444;2022-09-03T04:37:08;16.30;99.90
38084;DHT22;23894;51.466;7.444;2022-09-03T04:39:11;16.30;99.90
38084;DHT22;23894;51.466;7.444;2022-09-03T04:41:17;16.20;99.90
38084;DHT22;23894;51.466;7.444;2022-09-03T04:43:20;16.20;99.90
38084;DHT22;23894;51.466;7.444;2022-09-03T04:45:21;16.20;99.90
38084;DHT22;23894;51.466;7.444;2022-09-03T04:47:24;16.20;99.90
38084;DHT22;23894;51.466;7.444;2022-09-03T04:49:25;16.20;99.90
38084;DHT22;23894;51.466;7.444;2022-09-03T04:51:27;16.20;99.90
38084;DHT22;23894;51.466;7.444;2022-09-03T04:53:32;16.20;99.90
38084;DHT22;23894;51.466;7.444;2022-09-03T04:55:35;16.20;99.90
38084;DHT22;23894;51.466;7.444;2022-09-03T04:57:38;16.20;99.90
38084;DHT22;23894;51.466;7.444;2022-09-03T04:59:42;16.20;99.90
38084;DHT22;23894;51.466;7.444;2022-09-03T05:01:44;16.20;99.90
38084;DHT22;23894;51.466;7.444;2022-09-03T05:03:46;16.20;99.90
38084;DHT22;23894;51.466;7.444;2022-09-03T05:05:54;16.20;99.90
38084;DHT22;23894;51.466;7.444;2022-09-03T05:07:59;16.20;99.90
38084;DHT22;23894;51.466;7.444;2022-09-03T05:10:08;16.20;99.90
38084;DHT22;23894;51.466;7.444;2022-09-03T05:12:13;16.20;99.90
38084;DHT22;23894;51.466;7.444;2022-09-03T05:14:17;16.20;99.90
38084;DHT22;23894;51.466;7.444;2022-09-03T05:16:19;16.30;99.90
38084;DHT22;23894;51.466;7.444;2022-09-03T05:18:21;16.30;99.90
38084;DHT22;23894;51.466;7.444;2022-09-03T05:20:21;16.30;99.90
38084;DHT22;23894;51.466;7.444;2022-09-03T05:22:24;16.40;99.90
38084;DHT22;23894;51.466;7.444;2022-09-03T05:24:26;16.40;99.90
38084;DHT22;23894;51.466;7.444;2022-09-03T05:26:30;16.40;99.90
38084;DHT22;23894;51.466;7.444;2022-09-03T05:28:32;16.40;99.90
38084;DHT22;23894;51.466;7.444;2022-09-03T05:30:34;16.40;99.90
38084;DHT22;23894;51.466;7.444;2022-09-03T05:32:36;16.50;99.90
38084;DHT22;23894;51.466;7.444;2022-09-03T05:34:38;16.40;99.90
38084;DHT22;23894;51.466;7.444;2022-09-03T05:36:40;16.50;99.90
38084;DHT22;23894;51.466;7.444;2022-09-03T05:38:42;16.50;99.90
38084;DHT22;23894;51.466;7.444;2022-09-03T05:40:43;16.60;99.90
38084;DHT22;23894;51.466;7.444;2022-09-03T05:42:45;16.60;99.90
38084;DHT22;23894;51.466;7.444;2022-09-03T05:44:47;16.60;99.90
38084;DHT22;23894;51.466;7.444;2022-09-03T05:46:50;16.60;99.90
38084;DHT22;23894;51.466;7.444;2022-09-03T05:48:52;16.70;99.90
38084;DHT22;23894;51.466;7.444;2022-09-03T05:51:06;16.70;99.90
38084;DHT22;23894;51.466;7.444;2022-09-03T05:53:08;16.80;99.90
38084;DHT22;23894;51.466;7.444;2022-09-03T05:55:09;16.80;99.90
38084;DHT22;23894;51.466;7.444;2022-09-03T05:57:10;16.90;99.90
38084;DHT22;23894;51.466;7.444;2022-09-03T05:59:12;16.90;99.90
38084;DHT22;23894;51.466;7.444;2022-09-03T06:01:24;16.90;99.90
38084;DHT22;23894;51.466;7.444;2022-09-03T06:03:27;16.90;99.90
38084;DHT22;23894;51.466;7.444;2022-09-03T06:05:29;16.90;99.90
38084;DHT22;23894;51.466;7.444;2022-09-03T06:07:31;16.90;99.90
38084;DHT22;23894;51.466;7.444;2022-09-03T06:09:34;17.00;99.90
38084;DHT22;23894;51.466;7.444;2022-09-03T06:11:37;17.10;99.90
38084;DHT22;23894;51.466;7.444;2022-09-03T06:13:40;17.10;99.90
38084;DHT22;23894;51.466;7.444;2022-09-03T06:15:42;17.10;99.90
38084;DHT22;23894;51.466;7.444;2022-09-03T06:17:43;17.20;99.90
38084;DHT22;23894;51.466;7.444;2022-09-03T06:19:45;17.20;99.90
38084;DHT22;23894;51.466;7.444;2022-09-03T06:21:47;17.30;99.90
38084;DHT22;23894;51.466;7.444;2022-09-03T06:23:55;17.40;99.90
38084;DHT22;23894;51.466;7.444;2022-09-03T06:26:08;17.40;99.90
38084;DHT22;23894;51.466;7.444;2022-09-03T06:28:11;17.50;99.90
38084;DHT22;23894;51.466;7.444;2022-09-03T06:30:12;17.60;99.90
38084;DHT22;23894;51.466;7.444;2022-09-03T06:32:15;17.60;99.90
38084;DHT22;23894;51.466;7.444;2022-09-03T06:34:17;17.70;99.90
38084;DHT22;23894;51.466;7.444;2022-09-03T06:36:19;17.80;99.90
38084;DHT22;23894;51.466;7.444;2022-09-03T06:38:21;17.90;99.90
38084;DHT22;23894;51.466;7.444;2022-09-03T06:40:23;17.90;99.90
38084;DHT22;23894;51.466;7.444;2022-09-03T06:42:26;18.00;99.90
38084;DHT22;23894;51.466;7.444;2022-09-03T06:44:29;18.10;99.90
38084;DHT22;23894;51.466;7.444;2022-09-03T06:46:33;18.20;99.90
38084;DHT22;23894;51.466;7.444;2022-09-03T06:48:35;18.20;99.90
38084;DHT22;23894;51.466;7.444;2022-09-03T06:50:37;18.30;99.90
38084;DHT22;23894;51.466;7.444;2022-09-03T06:52:38;18.40;99.90
38084;DHT22;23894;51.466;7.444;2022-09-03T06:54:41;18.40;99.90
38084;DHT22;23894;51.466;7.444;2022-09-03T06:56:43;18.50;99.90
38084;DHT22;23894;51.466;7.444;2022-09-03T06:58:48;18.60;99.90
38084;DHT22;23894;51.466;7.444;2022-09-03T07:00:49;18.60;99.90
38084;DHT22;23894;51.466;7.444;2022-09-03T07:02:56;18.80;99.90
38084;DHT22;23894;51.466;7.444;2022-09-03T07:05:00;18.80;99.90
38084;DHT22;23894;51.466;7.444;2022-09-03T07:07:02;18.90;99.90
38084;DHT22;23894;51.466;7.444;2022-09-03T07:09:09;19.00;99.90
38084;DHT22;23894;51.466;7.444;2022-09-03T07:11:13;19.10;99.90
38084;DHT22;23894;51.466;7.444;2022-09-03T07:13:15;19.20;99.90
38084;DHT22;23894;51.466;7.444;2022-09-03T07:15:16;19.30;99.90
38084;DHT22;23894;51.466;7.444;2022-09-03T07:17:18;19.30;99.90
38084;DHT22;23894;51.466;7.444;2022-09-03T07:19:20;19.40;99.90
38084;DHT22;23894;51.466;7.444;2022-09-03T07:21:24;19.50;99.90
38084;DHT22;23894;51.466;7.444;2022-09-03T07:23:30;19.60;99.90
38084;DHT22;23894;51.466;7.444;2022-09-03T07:25:31;19.70;99.90
38084;DHT22;23894;51.466;7.444;2022-09-03T07:27:37;19.80;99.90
38084;DHT22;23894;51.466;7.444;2022-09-03T07:29:37;19.90;99.90
38084;DHT22;23894;51.466;7.444;2022-09-03T07:31:40;19.90;99.90
38084;DHT22;23894;51.466;7.444;2022-09-03T07:33:41;20.00;99.90
38084;DHT22;23894;51.466;7.444;2022-09-03T07:35:44;20.10;99.90
38084;DHT22;23894;51.466;7.444;2022-09-03T07:37:47;20.20;99.90
38084;DHT22;23894;51.466;7.444;2022-09-03T07:39:49;20.30;99.90
38084;DHT22;23894;51.466;7.444;2022-09-03T07:41:51;20.30;99.90
38084;DHT22;23894;51.466;7.444;2022-09-03T07:43:54;20.40;99.90
38084;DHT22;23894;51.466;7.444;2022-09-03T07:45:57;20.50;99.90
38084;DHT22;23894;51.466;7.444;2022-09-03T07:48:00;20.60;99.90
38084;DHT22;23894;51.466;7.444;2022-09-03T07:50:03;20.70;99.90
38084;DHT22;23894;51.466;7.444;2022-09-03T07:52:05;20.70;99.90
38084;DHT22;23894;51.466;7.444;2022-09-03T07:54:10;20.80;99.90
38084;DHT22;23894;51.466;7.444;2022-09-03T07:56:12;20.90;99.90
38084;DHT22;23894;51.466;7.444;2022-09-03T07:58:14;21.00;99.90
38084;DHT22;23894;51.466;7.444;2022-09-03T08:00:16;21.10;99.90
38084;DHT22;23894;51.466;7.444;2022-09-03T08:02:18;21.20;99.90
38084;DHT22;23894;51.466;7.444;2022-09-03T08:04:20;21.30;99.90
38084;DHT22;23894;51.466;7.444;2022-09-03T08:06:25;21.30;99.90
38084;DHT22;23894;51.466;7.444;2022-09-03T08:08:26;21.40;99.90
38084;DHT22;23894;51.466;7.444;2022-09-03T08:10:27;21.40;99.90
38084;DHT22;23894;51.466;7.444;2022-09-03T08:12:30;21.40;99.90
38084;DHT22;23894;51.466;7.444;2022-09-03T08:14:32;21.50;99.90
38084;DHT22;23894;51.466;7.444;2022-09-03T08:16:38;21.50;99.90
38084;DHT22;23894;51.466;7.444;2022-09-03T08:18:39;21.50;99.90
38084;DHT22;23894;51.466;7.444;2022-09-03T08:20:40;21.60;99.90
38084;DHT22;23894;51.466;7.444;2022-09-03T08:22:41;21.60;99.90
38084;DHT22;23894;51.466;7.444;2022-09-03T08:24:42;21.70;99.90
38084;DHT22;23894;51.466;7.444;2022-09-03T08:26:45;21.80;99.90
38084;DHT22;23894;51.466;7.444;2022-09-03T08:28:47;21.90;99.90
38084;DHT22;23894;51.466;7.444;2022-09-03T08:30:48;21.90;99.90
38084;DHT22;23894;51.466;7.444;2022-09-03T08:32:49;22.00;99.90
38084;DHT22;23894;51.466;7.444;2022-09-03T08:34:49;22.10;99.90
38084;DHT22;23894;51.466;7.444;2022-09-03T08:36:51;22.20;99.90
38084;DHT22;23894;51.466;7.444;2022-09-03T08:38:54;22.30;99.90
38084;DHT22;23894;51.466;7.444;2022-09-03T08:41:19;22.30;99.90
38084;DHT22;23894;51.466;7.444;2022-09-03T08:46:20;22.40;99.90
38084;DHT22;23894;51.466;7.444;2022-09-03T08:48:22;22.40;99.90
38084;DHT22;23894;51.466;7.444;2022-09-03T08:50:30;22.40;99.90
38084;DHT22;23894;51.466;7.444;2022-09-03T08:53:15;22.40;99.90
38084;DHT22;23894;51.466;7.444;2022-09-03T08:55:30;22.60;99.90
38084;DHT22;23894;51.466;7.444;2022-09-03T08:57:40;22.60;99.90
38084;DHT22;23894;51.466;7.444;2022-09-03T08:59:44;22.70;99.90
38084;DHT22;23894;51.466;7.444;2022-09-03T09:05:08;22.80;99.90
38084;DHT22;23894;51.466;7.444;2022-09-03T09:07:18;22.90;99.90
38084;DHT22;23894;51.466;7.444;2022-09-03T09:09:31;23.00;99.90
38084;DHT22;23894;51.466;7.444;2022-09-03T09:14:34;23.10;99.90
38084;DHT22;23894;51.466;7.444;2022-09-03T09:21:49;23.40;99.90
38084;DHT22;23894;51.466;7.444;2022-09-03T09:23:51;23.20;99.90
38084;DHT22;23894;51.466;7.444;2022-09-03T09:25:55;23.10;99.90
38084;DHT22;23894;51.466;7.444;2022-09-03T09:30:14;23.00;99.90
38084;DHT22;23894;51.466;7.444;2022-09-03T09:32:18;23.00;99.90
38084;DHT22;23894;51.466;7.444;2022-09-03T09:34:19;23.00;99.90
38084;DHT22;23894;51.466;7.444;2022-09-03T09:36:21;23.00;99.90
38084;DHT22;23894;51.466;7.444;2022-09-03T09:38:33;23.10;99.90
38084;DHT22;23894;51.466;7.444;2022-09-03T09:40:43;23.10;99.90
38084;DHT22;23894;51.466;7.444;2022-09-03T09:42:44;23.20;99.90
38084;DHT22;23894;51.466;7.444;2022-09-03T09:44:44;23.20;99.90
38084;DHT22;23894;51.466;7.444;2022-09-03T09:46:45;23.30;99.90
38084;DHT22;23894;51.466;7.444;2022-09-03T09:48:54;23.30;99.90
38084;DHT22;23894;51.466;7.444;2022-09-03T09:51:26;23.40;99.90
38084;DHT22;23894;51.466;7.444;2022-09-03T09:53:30;23.50;99.90
38084;DHT22;23894;51.466;7.444;2022-09-03T09:55:30;23.50;99.90
38084;DHT22;23894;51.466;7.444;2022-09-03T09:57:32;23.60;99.90
38084;DHT22;23894;51.466;7.444;2022-09-03T09:59:34;23.60;99.90
38084;DHT22;23894;51.466;7.444;2022-09-03T10:01:43;23.70;99.90
38084;DHT22;23894;51.466;7.444;2022-09-03T10:03:54;23.70;99.90
38084;DHT22;23894;51.466;7.444;2022-09-03T10:06:07;23.80;99.90
38084;DHT22;23894;51.466;7.444;2022-09-03T10:08:29;23.80;99.90
38084;DHT22;23894;51.466;7.444;2022-09-03T10:10:33;23.90;99.90
38084;DHT22;23894;51.466;7.444;2022-09-03T10:12:42;24.00;99.90
38084;DHT22;23894;51.466;7.444;2022-09-03T10:22:22;24.20;99.90
38084;DHT22;23894;51.466;7.444;2022-09-03T10:24:40;23.90;99.90
38084;DHT22;23894;51.466;7.444;2022-09-03T10:26:44;23.70;99.90
38084;DHT22;23894;51.466;7.444;2022-09-03T10:28:50;23.40;99.90
38084;DHT22;23894;51.466;7.444;2022-09-03T10:33:11;23.00;99.90
38084;DHT22;23894;51.466;7.444;2022-09-03T10:35:30;22.90;99.90
38084;DHT22;23894;51.466;7.444;2022-09-03T10:44:30;22.60;99.90
38084;DHT22;23894;51.466;7.444;2022-09-03T10:49:09;22.60;99.90
38084;DHT22;23894;51.466;7.444;2022-09-03T10:51:26;22.70;99.90
38084;DHT22;23894;51.466;7.444;2022-09-03T10:56:04;22.70;99.90
38084;DHT22;23894;51.466;7.444;2022-09-03T11:00:33;23.10;99.90
38084;DHT22;23894;51.466;7.444;2022-09-03T11:05:21;23.50;99.90
38084;DHT22;23894;51.466;7.444;2022-09-03T11:07:31;23.70;99.90
38084;DHT22;23894;51.466;7.444;2022-09-03T11:09:45;24.00;99.90
38084;DHT22;23894;51.466;7.444;2022-09-03T11:12:09;24.20;99.90
38084;DHT22;23894;51.466;7.444;2022-09-03T11:14:15;24.30;99.90
38084;DHT22;23894;51.466;7.444;2022-09-03T11:16:31;24.40;99.90
38084;DHT22;23894;51.466;7.444;2022-09-03T11:18:49;24.60;99.90
38084;DHT22;23894;51.466;7.444;2022-09-03T11:20:54;24.70;99.90
38084;DHT22;23894;51.466;7.444;2022-09-03T11:23:00;24.80;99.90
38084;DHT22;23894;51.466;7.444;2022-09-03T11:25:03;25.00;99.90
38084;DHT22;23894;51.466;7.444;2022-09-03T11:30:03;25.10;99.90
38084;DHT22;23894;51.466;7.444;2022-09-03T11:32:19;25.20;99.90
38084;DHT22;23894;51.466;7.444;2022-09-03T11:34:47;25.20;99.90
38084;DHT22;23894;51.466;7.444;2022-09-03T11:36:49;25.30;99.90
38084;DHT22;23894;51.466;7.444;2022-09-03T11:38:49;25.40;99.90
38084;DHT22;23894;51.466;7.444;2022-09-03T11:43:06;25.60;99.90
38084;DHT22;23894;51.466;7.444;2022-09-03T11:47:40;25.60;99.90
38084;DHT22;23894;51.466;7.444;2022-09-03T11:49:47;25.60;99.90
38084;DHT22;23894;51.466;7.444;2022-09-03T11:52:00;25.70;99.90
38084;DHT22;23894;51.466;7.444;2022-09-03T11:56:18;25.80;99.90
38084;DHT22;23894;51.466;7.444;2022-09-03T11:58:37;25.80;99.90
38084;DHT22;23894;51.466;7.444;2022-09-03T12:00:40;25.80;99.90
38084;DHT22;23894;51.466;7.444;2022-09-03T12:02:55;25.80;99.90
38084;DHT22;23894;51.466;7.444;2022-09-03T12:12:44;27.00;99.90
38084;DHT22;23894;51.466;7.444;2022-09-03T12:15:01;28.20;99.90
38084;DHT22;23894;51.466;7.444;2022-09-03T12:17:10;29.40;99.90
38084;DHT22;23894;51.466;7.444;2022-09-03T12:19:36;29.70;99.90
38084;DHT22;23894;51.466;7.444;2022-09-03T12:21:39;29.10;99.90
38084;DHT22;23894;51.466;7.444;2022-09-03T12:23:44;28.80;99.90
38084;DHT22;23894;51.466;7.444;2022-09-03T12:25:45;29.40;99.90
38084;DHT22;23894;51.466;7.444;2022-09-03T12:27:46;30.70;99.90
38084;DHT22;23894;51.466;7.444;2022-09-03T12:30:03;32.30;99.90
38084;DHT22;23894;51.466;7.444;2022-09-03T12:32:08;33.10;99.90
38084;DHT22;23894;51.466;7.444;2022-09-03T12:34:13;32.60;99.90
38084;DHT22;23894;51.466;7.444;2022-09-03T12:36:15;32.10;99.90
38084;DHT22;23894;51.466;7.444;2022-09-03T12:38:25;31.80;99.90
38084;DHT22;23894;51.466;7.444;2022-09-03T12:40:28;31.60;99.90
38084;DHT22;23894;51.466;7.444;2022-09-03T12:42:30;31.10;99.90
38084;DHT22;23894;51.466;7.444;2022-09-03T12:46:34;31.00;99.90
38084;DHT22;23894;51.466;7.444;2022-09-03T12:50:36;32.70;99.90
38084;DHT22;23894;51.466;7.444;2022-09-03T12:52:58;34.10;99.90
38084;DHT22;23894;51.466;7.444;2022-09-03T12:57:08;36.60;99.90
38084;DHT22;23894;51.466;7.444;2022-09-03T12:59:13;37.60;99.90
38084;DHT22;23894;51.466;7.444;2022-09-03T13:01:26;38.50;99.90
38084;DHT22;23894;51.466;7.444;2022-09-03T13:05:46;40.00;99.90
38084;DHT22;23894;51.466;7.444;2022-09-03T13:07:51;40.80;99.90
38084;DHT22;23894;51.466;7.444;2022-09-03T13:09:59;41.20;99.90
38084;DHT22;23894;51.466;7.444;2022-09-03T13:12:03;41.30;99.90
38084;DHT22;23894;51.466;7.444;2022-09-03T13:14:07;41.50;99.90
38084;DHT22;23894;51.466;7.444;2022-09-03T13:21:23;40.20;99.90
38084;DHT22;23894;51.466;7.444;2022-09-03T13:28:25;40.60;99.90
38084;DHT22;23894;51.466;7.444;2022-09-03T13:31:41;41.20;99.90
38084;DHT22;23894;51.466;7.444;2022-09-03T13:33:22;40.50;99.90
38084;DHT22;23894;51.466;7.444;2022-09-03T13:40:34;38.10;99.90
38084;DHT22;23894;51.466;7.444;2022-09-03T13:42:39;37.50;99.90
38084;DHT22;23894;51.466;7.444;2022-09-03T13:44:50;36.70;99.90
38084;DHT22;23894;51.466;7.444;2022-09-03T13:46:58;36.00;99.90
38084;DHT22;23894;51.466;7.444;2022-09-03T13:51:43;34.60;99.90
38084;DHT22;23894;51.466;7.444;2022-09-03T13:54:02;33.90;99.90
38084;DHT22;23894;51.466;7.444;2022-09-03T13:56:21;33.60;99.90
38084;DHT22;23894;51.466;7.444;2022-09-03T13:58:36;33.30;99.90
38084;DHT22;23894;51.466;7.444;2022-09-03T14:01:03;33.20;99.90
38084;DHT22;23894;51.466;7.444;2022-09-03T14:10:20;34.60;99.90
38084;DHT22;23894;51.466;7.444;2022-09-03T14:12:38;35.00;99.90
38084;DHT22;23894;51.466;7.444;2022-09-03T14:14:55;35.20;99.90
38084;DHT22;23894;51.466;7.444;2022-09-03T14:17:55;36.00;99.90
38084;DHT22;23894;51.466;7.444;2022-09-03T14:22:08;37.30;99.90
38084;DHT22;23894;51.466;7.444;2022-09-03T14:26:35;38.80;99.90
38084;DHT22;23894;51.466;7.444;2022-09-03T14:28:40;38.30;99.90
38084;DHT22;23894;51.466;7.444;2022-09-03T14:31:03;37.50;99.90
38084;DHT22;23894;51.466;7.444;2022-09-03T14:33:29;36.60;99.90
38084;DHT22;23894;51.466;7.444;2022-09-03T14:42:43;33.30;99.90
38084;DHT22;23894;51.466;7.444;2022-09-03T20:03:41;22.30;99.90
38084;DHT22;23894;51.466;7.444;2022-09-03T20:06:02;22.30;99.90
38084;DHT22;23894;51.466;7.444;2022-09-03T20:08:24;22.30;99.90
38084;DHT22;23894;51.466;7.444;2022-09-03T20:10:45;22.20;99.90
38084;DHT22;23894;51.466;7.444;2022-09-03T20:13:10;22.10;99.90
38084;DHT22;23894;51.466;7.444;2022-09-03T20:15:14;22.00;99.90
38084;DHT22;23894;51.466;7.444;2022-09-03T20:17:27;21.90;99.90
38084;DHT22;23894;51.466;7.444;2022-09-03T20:31:36;21.30;99.90
38084;DHT22;23894;51.466;7.444;2022-09-03T20:41:14;21.10;99.90
38084;DHT22;23894;51.466;7.444;2022-09-03T20:51:00;20.80;99.90
38084;DHT22;23894;51.466;7.444;2022-09-03T20:55:41;20.60;99.90
38084;DHT22;23894;51.466;7.444;2022-09-03T21:00:09;20.60;99.90
38084;DHT22;23894;51.466;7.444;2022-09-03T21:07:15;20.40;99.90
38084;DHT22;23894;51.466;7.444;2022-09-03T21:09:48;20.30;99.90
38084;DHT22;23894;51.466;7.444;2022-09-03T21:12:27;20.20;99.90
38084;DHT22;23894;51.466;7.444;2022-09-03T21:14:53;20.20;99.90
38084;DHT22;23894;51.466;7.444;2022-09-03T21:26:25;19.90;99.90
38084;DHT22;23894;51.466;7.444;2022-09-03T21:28:35;19.80;99.90
38084;DHT22;23894;51.466;7.444;2022-09-03T21:30:42;19.80;99.90
38084;DHT22;23894;51.466;7.444;2022-09-03T21:32:59;19.80;99.90
38084;DHT22;23894;51.466;7.444;2022-09-03T21:37:17;19.60;99.90
38084;DHT22;23894;51.466;7.444;2022-09-03T21:39:35;19.60;99.90
38084;DHT22;23894;51.466;7.444;2022-09-03T21:44:14;19.50;99.90
38084;DHT22;23894;51.466;7.444;2022-09-03T21:46:26;19.40;99.90
38084;DHT22;23894;51.466;7.444;2022-09-03T21:48:35;19.40;99.90
38084;DHT22;23894;51.466;7.444;2022-09-03T21:53:17;19.30;99.90
38084;DHT22;23894;51.466;7.444;2022-09-03T21:55:40;19.20;99.90
38084;DHT22;23894;51.466;7.444;2022-09-03T23:22:42;17.90;99.90
38084;DHT22;23894;51.466;7.444;2022-09-03T23:24:52;17.80;99.90
38084;DHT22;23894;51.466;7.444;2022-09-03T23:26:54;17.80;99.90
38084;DHT22;23894;51.466;7.444;2022-09-03T23:28:58;17.80;99.90
38084;DHT22;23894;51.466;7.444;2022-09-03T23:31:20;17.70;99.90
38084;DHT22;23894;51.466;7.444;2022-09-03T23:33:22;17.70;99.90
38084;DHT22;23894;51.466;7.444;2022-09-03T23:35:28;17.60;99.90